sensor_id;sensor_type;location;lat;lon;timestamp;P1;durP1;ratioP1;P2;durP2;ratioP2
59970;SDS011;45825;45.434;9.116;2023-09-19T00:00:59;16.92;;;10.32;;
59970;SDS011;45825;45.434;9.116;2023-09-19T00:03:24;16.48;;;10.27;;
59970;SDS011;45825;45.434;9.116;2023-09-19T00:05:53;17.25;;;10.35;;
59970;SDS011;45825;45.434;9.116;2023-09-19T00:08:20;17.65;;;10.35;;
59970;SDS011;45825;45.434;9.116;2023-09-19T00:10:49;17.08;;;10.20;;
59970;SDS011;45825;45.434;9.116;2023-09-19T00:13:15;17.17;;;9.45;;
59970;SDS011;45825;45.434;9.116;2023-09-19T00:15:41;19.10;;;9.65;;
59970;SDS011;45825;45.434;9.116;2023-09-19T00:18:13;18.02;;;10.15;;
59970;SDS011;45825;45.434;9.116;2023-09-19T00:20:40;15.65;;;10.35;;
59970;SDS011;45825;45.434;9.116;2023-09-19T00:23:07;15.32;;;10.15;;
59970;SDS011;45825;45.434;9.116;2023-09-19T00:25:33;16.55;;;9.93;;
59970;SDS011;45825;45.434;9.116;2023-09-19T00:28:00;15.25;;;9.85;;
59970;SDS011;45825;45.434;9.116;2023-09-19T00:30:26;18.10;;;11.15;;
59970;SDS011;45825;45.434;9.116;2023-09-19T00:32:51;18.70;;;10.45;;
59970;SDS011;45825;45.434;9.116;2023-09-19T00:35:18;17.35;;;10.70;;
59970;SDS011;45825;45.434;9.116;2023-09-19T00:37:44;16.80;;;10.25;;
59970;SDS011;45825;45.434;9.116;2023-09-19T00:40:09;16.23;;;9.60;;
59970;SDS011;45825;45.434;9.116;2023-09-19T00:42:40;16.80;;;10.68;;
59970;SDS011;45825;45.434;9.116;2023-09-19T00:45:10;17.77;;;10.70;;
59970;SDS011;45825;45.434;9.116;2023-09-19T00:47:49;16.98;;;10.00;;
59970;SDS011;45825;45.434;9.116;2023-09-19T00:50:19;18.00;;;10.85;;
59970;SDS011;45825;45.434;9.116;2023-09-19T00:55:14;15.68;;;9.82;;
59970;SDS011;45825;45.434;9.116;2023-09-19T00:57:41;19.70;;;11.18;;
59970;SDS011;45825;45.434;9.116;2023-09-19T01:00:07;14.82;;;10.07;;
59970;SDS011;45825;45.434;9.116;2023-09-19T01:02:37;19.70;;;10.93;;
59970;SDS011;45825;45.434;9.116;2023-09-19T01:05:02;16.48;;;11.35;;
59970;SDS011;45825;45.434;9.116;2023-09-19T01:07:30;17.73;;;10.60;;
59970;SDS011;45825;45.434;9.116;2023-09-19T01:09:57;17.30;;;10.57;;
59970;SDS011;45825;45.434;9.116;2023-09-19T01:20:59;19.52;;;12.32;;
59970;SDS011;45825;45.434;9.116;2023-09-19T01:29:44;18.42;;;11.18;;
59970;SDS011;45825;45.434;9.116;2023-09-19T01:32:13;15.75;;;10.73;;
59970;SDS011;45825;45.434;9.116;2023-09-19T01:37:17;20.33;;;11.23;;
59970;SDS011;45825;45.434;9.116;2023-09-19T01:39:48;20.23;;;10.38;;
59970;SDS011;45825;45.434;9.116;2023-09-19T01:48:30;17.45;;;8.93;;
59970;SDS011;45825;45.434;9.116;2023-09-19T01:51:02;19.48;;;9.48;;
59970;SDS011;45825;45.434;9.116;2023-09-19T01:53:45;17.23;;;9.55;;
59970;SDS011;45825;45.434;9.116;2023-09-19T01:59:02;21.85;;;9.40;;
59970;SDS011;45825;45.434;9.116;2023-09-19T02:01:31;18.05;;;9.15;;
59970;SDS011;45825;45.434;9.116;2023-09-19T02:03:58;14.77;;;8.73;;
59970;SDS011;45825;45.434;9.116;2023-09-19T02:06:24;16.83;;;8.07;;
59970;SDS011;45825;45.434;9.116;2023-09-19T02:08:51;14.02;;;7.80;;
59970;SDS011;45825;45.434;9.116;2023-09-19T02:11:18;12.63;;;8.25;;
59970;SDS011;45825;45.434;9.116;2023-09-19T02:13:43;15.90;;;7.97;;
59970;SDS011;45825;45.434;9.116;2023-09-19T02:16:09;14.38;;;7.82;;
59970;SDS011;45825;45.434;9.116;2023-09-19T02:18:35;16.17;;;7.13;;
59970;SDS011;45825;45.434;9.116;2023-09-19T02:21:01;17.13;;;7.38;;
59970;SDS011;45825;45.434;9.116;2023-09-19T02:23:27;18.45;;;7.88;;
59970;SDS011;45825;45.434;9.116;2023-09-19T02:25:53;13.88;;;7.13;;
59970;SDS011;45825;45.434;9.116;2023-09-19T02:28:18;13.55;;;6.78;;
59970;SDS011;45825;45.434;9.116;2023-09-19T02:30:47;13.43;;;6.72;;
59970;SDS011;45825;45.434;9.116;2023-09-19T02:33:13;12.93;;;6.65;;
59970;SDS011;45825;45.434;9.116;2023-09-19T02:35:38;13.90;;;6.60;;
59970;SDS011;45825;45.434;9.116;2023-09-19T02:38:04;13.05;;;6.25;;
59970;SDS011;45825;45.434;9.116;2023-09-19T02:40:31;15.05;;;6.80;;
59970;SDS011;45825;45.434;9.116;2023-09-19T02:42:56;14.93;;;6.63;;
59970;SDS011;45825;45.434;9.116;2023-09-19T02:45:24;12.32;;;5.93;;
59970;SDS011;45825;45.434;9.116;2023-09-19T02:47:50;11.88;;;6.13;;
59970;SDS011;45825;45.434;9.116;2023-09-19T02:50:15;11.57;;;6.25;;
59970;SDS011;45825;45.434;9.116;2023-09-19T02:52:44;14.05;;;6.63;;
59970;SDS011;45825;45.434;9.116;2023-09-19T02:55:13;13.40;;;6.30;;
59970;SDS011;45825;45.434;9.116;2023-09-19T02:57:45;12.18;;;6.03;;
59970;SDS011;45825;45.434;9.116;2023-09-19T03:00:11;12.05;;;6.18;;
59970;SDS011;45825;45.434;9.116;2023-09-19T03:02:37;10.55;;;6.00;;
59970;SDS011;45825;45.434;9.116;2023-09-19T03:05:04;14.13;;;6.35;;
59970;SDS011;45825;45.434;9.116;2023-09-19T03:07:31;13.70;;;6.10;;
59970;SDS011;45825;45.434;9.116;2023-09-19T03:09:56;14.57;;;5.78;;
59970;SDS011;45825;45.434;9.116;2023-09-19T03:12:21;13.23;;;6.30;;
59970;SDS011;45825;45.434;9.116;2023-09-19T03:14:47;11.15;;;5.75;;
59970;SDS011;45825;45.434;9.116;2023-09-19T03:17:13;14.43;;;6.10;;
59970;SDS011;45825;45.434;9.116;2023-09-19T03:19:39;11.05;;;6.07;;
59970;SDS011;45825;45.434;9.116;2023-09-19T03:22:05;12.63;;;5.90;;
59970;SDS011;45825;45.434;9.116;2023-09-19T03:24:30;10.95;;;5.80;;
59970;SDS011;45825;45.434;9.116;2023-09-19T03:26:56;13.07;;;6.05;;
59970;SDS011;45825;45.434;9.116;2023-09-19T03:29:22;13.43;;;6.03;;
59970;SDS011;45825;45.434;9.116;2023-09-19T03:31:47;10.80;;;5.93;;
59970;SDS011;45825;45.434;9.116;2023-09-19T03:34:13;15.82;;;7.18;;
59970;SDS011;45825;45.434;9.116;2023-09-19T03:36:38;14.73;;;6.65;;
59970;SDS011;45825;45.434;9.116;2023-09-19T03:39:05;12.05;;;7.55;;
59970;SDS011;45825;45.434;9.116;2023-09-19T03:41:31;15.05;;;8.45;;
59970;SDS011;45825;45.434;9.116;2023-09-19T03:43:58;12.48;;;7.60;;
59970;SDS011;45825;45.434;9.116;2023-09-19T03:46:23;14.20;;;8.30;;
59970;SDS011;45825;45.434;9.116;2023-09-19T03:48:50;12.23;;;7.45;;
59970;SDS011;45825;45.434;9.116;2023-09-19T03:51:15;14.18;;;7.22;;
59970;SDS011;45825;45.434;9.116;2023-09-19T03:53:41;13.85;;;6.88;;
59970;SDS011;45825;45.434;9.116;2023-09-19T03:56:06;15.43;;;7.50;;
59970;SDS011;45825;45.434;9.116;2023-09-19T03:58:33;15.38;;;7.50;;
59970;SDS011;45825;45.434;9.116;2023-09-19T04:01:00;13.27;;;7.13;;
59970;SDS011;45825;45.434;9.116;2023-09-19T04:03:25;12.32;;;7.30;;
59970;SDS011;45825;45.434;9.116;2023-09-19T04:05:59;15.88;;;7.55;;
59970;SDS011;45825;45.434;9.116;2023-09-19T04:08:24;14.00;;;7.57;;
59970;SDS011;45825;45.434;9.116;2023-09-19T04:10:50;13.27;;;7.80;;
59970;SDS011;45825;45.434;9.116;2023-09-19T04:13:16;14.38;;;7.80;;
59970;SDS011;45825;45.434;9.116;2023-09-19T04:15:41;12.93;;;7.32;;
59970;SDS011;45825;45.434;9.116;2023-09-19T04:18:07;13.02;;;7.03;;
59970;SDS011;45825;45.434;9.116;2023-09-19T04:20:32;13.15;;;7.18;;
59970;SDS011;45825;45.434;9.116;2023-09-19T04:22:58;13.48;;;7.32;;
59970;SDS011;45825;45.434;9.116;2023-09-19T04:25:24;13.25;;;7.60;;
59970;SDS011;45825;45.434;9.116;2023-09-19T04:27:52;13.23;;;7.18;;
59970;SDS011;45825;45.434;9.116;2023-09-19T04:30:17;12.25;;;8.02;;
59970;SDS011;45825;45.434;9.116;2023-09-19T04:32:43;12.88;;;7.07;;
59970;SDS011;45825;45.434;9.116;2023-09-19T04:35:09;14.07;;;8.02;;
59970;SDS011;45825;45.434;9.116;2023-09-19T04:37:36;12.35;;;7.57;;
59970;SDS011;45825;45.434;9.116;2023-09-19T04:40:04;13.38;;;7.68;;
59970;SDS011;45825;45.434;9.116;2023-09-19T04:42:42;13.10;;;8.23;;
59970;SDS011;45825;45.434;9.116;2023-09-19T04:45:08;14.50;;;7.55;;
59970;SDS011;45825;45.434;9.116;2023-09-19T04:47:37;13.43;;;7.70;;
59970;SDS011;45825;45.434;9.116;2023-09-19T04:50:05;14.75;;;8.77;;
59970;SDS011;45825;45.434;9.116;2023-09-19T04:52:31;11.05;;;7.70;;
59970;SDS011;45825;45.434;9.116;2023-09-19T04:54:57;13.52;;;7.88;;
59970;SDS011;45825;45.434;9.116;2023-09-19T04:57:22;13.43;;;7.75;;
59970;SDS011;45825;45.434;9.116;2023-09-19T04:59:48;15.77;;;8.57;;
59970;SDS011;45825;45.434;9.116;2023-09-19T05:02:13;14.88;;;8.50;;
59970;SDS011;45825;45.434;9.116;2023-09-19T05:04:38;14.02;;;8.20;;
59970;SDS011;45825;45.434;9.116;2023-09-19T05:07:04;14.15;;;8.20;;
59970;SDS011;45825;45.434;9.116;2023-09-19T05:09:29;11.55;;;7.95;;
59970;SDS011;45825;45.434;9.116;2023-09-19T05:11:54;13.68;;;7.88;;
59970;SDS011;45825;45.434;9.116;2023-09-19T05:14:21;12.13;;;7.38;;
59970;SDS011;45825;45.434;9.116;2023-09-19T05:16:47;11.77;;;7.68;;
59970;SDS011;45825;45.434;9.116;2023-09-19T05:19:12;18.63;;;8.02;;
59970;SDS011;45825;45.434;9.116;2023-09-19T05:21:38;13.75;;;8.20;;
59970;SDS011;45825;45.434;9.116;2023-09-19T05:24:04;13.30;;;8.70;;
59970;SDS011;45825;45.434;9.116;2023-09-19T05:26:31;13.68;;;7.25;;
59970;SDS011;45825;45.434;9.116;2023-09-19T05:28:57;12.55;;;7.40;;
59970;SDS011;45825;45.434;9.116;2023-09-19T05:31:22;12.73;;;8.40;;
59970;SDS011;45825;45.434;9.116;2023-09-19T05:33:48;15.80;;;7.88;;
59970;SDS011;45825;45.434;9.116;2023-09-19T05:36:14;12.88;;;8.15;;
59970;SDS011;45825;45.434;9.116;2023-09-19T05:38:41;11.82;;;7.28;;
59970;SDS011;45825;45.434;9.116;2023-09-19T05:41:07;15.32;;;9.05;;
59970;SDS011;45825;45.434;9.116;2023-09-19T05:43:34;14.75;;;8.25;;
59970;SDS011;45825;45.434;9.116;2023-09-19T05:46:02;15.52;;;9.40;;
59970;SDS011;45825;45.434;9.116;2023-09-19T05:48:27;18.50;;;8.30;;
59970;SDS011;45825;45.434;9.116;2023-09-19T05:50:53;12.98;;;8.55;;
59970;SDS011;45825;45.434;9.116;2023-09-19T05:53:18;18.67;;;9.20;;
59970;SDS011;45825;45.434;9.116;2023-09-19T05:55:43;15.80;;;8.50;;
59970;SDS011;45825;45.434;9.116;2023-09-19T05:58:09;17.83;;;9.05;;
59970;SDS011;45825;45.434;9.116;2023-09-19T06:00:35;12.35;;;9.20;;
59970;SDS011;45825;45.434;9.116;2023-09-19T06:03:01;13.43;;;8.82;;
59970;SDS011;45825;45.434;9.116;2023-09-19T06:05:27;14.00;;;9.23;;
59970;SDS011;45825;45.434;9.116;2023-09-19T06:07:53;15.90;;;9.15;;
59970;SDS011;45825;45.434;9.116;2023-09-19T06:10:18;15.00;;;9.40;;
59970;SDS011;45825;45.434;9.116;2023-09-19T06:12:46;12.95;;;9.45;;
59970;SDS011;45825;45.434;9.116;2023-09-19T06:15:12;11.38;;;8.30;;
59970;SDS011;45825;45.434;9.116;2023-09-19T06:17:46;14.05;;;8.90;;
59970;SDS011;45825;45.434;9.116;2023-09-19T06:20:16;16.05;;;8.95;;
59970;SDS011;45825;45.434;9.116;2023-09-19T06:22:42;14.27;;;8.77;;
59970;SDS011;45825;45.434;9.116;2023-09-19T06:25:12;12.95;;;8.20;;
59970;SDS011;45825;45.434;9.116;2023-09-19T06:27:49;16.08;;;8.98;;
59970;SDS011;45825;45.434;9.116;2023-09-19T06:30:17;15.65;;;8.73;;
59970;SDS011;45825;45.434;9.116;2023-09-19T06:32:42;13.80;;;8.98;;
59970;SDS011;45825;45.434;9.116;2023-09-19T06:35:11;14.57;;;8.48;;
59970;SDS011;45825;45.434;9.116;2023-09-19T06:37:39;12.25;;;8.52;;
59970;SDS011;45825;45.434;9.116;2023-09-19T06:40:09;13.73;;;8.90;;
59970;SDS011;45825;45.434;9.116;2023-09-19T06:42:50;13.05;;;8.70;;
59970;SDS011;45825;45.434;9.116;2023-09-19T06:45:17;14.77;;;8.82;;
59970;SDS011;45825;45.434;9.116;2023-09-19T06:47:47;16.63;;;8.30;;
59970;SDS011;45825;45.434;9.116;2023-09-19T06:50:19;15.82;;;8.25;;
59970;SDS011;45825;45.434;9.116;2023-09-19T06:52:47;13.15;;;8.57;;
59970;SDS011;45825;45.434;9.116;2023-09-19T06:55:15;12.40;;;7.95;;
59970;SDS011;45825;45.434;9.116;2023-09-19T06:57:41;13.15;;;7.93;;
59970;SDS011;45825;45.434;9.116;2023-09-19T07:00:09;13.45;;;8.48;;
59970;SDS011;45825;45.434;9.116;2023-09-19T07:02:41;13.82;;;8.25;;
59970;SDS011;45825;45.434;9.116;2023-09-19T07:05:06;11.68;;;8.73;;
59970;SDS011;45825;45.434;9.116;2023-09-19T07:07:32;12.73;;;8.52;;
59970;SDS011;45825;45.434;9.116;2023-09-19T07:10:00;11.50;;;8.20;;
59970;SDS011;45825;45.434;9.116;2023-09-19T07:12:26;13.60;;;8.63;;
59970;SDS011;45825;45.434;9.116;2023-09-19T07:14:51;11.65;;;8.25;;
59970;SDS011;45825;45.434;9.116;2023-09-19T07:17:16;16.77;;;8.30;;
59970;SDS011;45825;45.434;9.116;2023-09-19T07:19:43;14.45;;;9.00;;
59970;SDS011;45825;45.434;9.116;2023-09-19T07:22:09;17.73;;;8.27;;
59970;SDS011;45825;45.434;9.116;2023-09-19T07:24:34;14.48;;;8.40;;
59970;SDS011;45825;45.434;9.116;2023-09-19T07:27:01;13.98;;;8.38;;
59970;SDS011;45825;45.434;9.116;2023-09-19T07:29:27;11.13;;;7.70;;
59970;SDS011;45825;45.434;9.116;2023-09-19T07:31:52;14.23;;;8.60;;
59970;SDS011;45825;45.434;9.116;2023-09-19T07:34:18;14.23;;;8.32;;
59970;SDS011;45825;45.434;9.116;2023-09-19T07:36:43;11.75;;;8.50;;
59970;SDS011;45825;45.434;9.116;2023-09-19T07:39:08;12.73;;;8.65;;
59970;SDS011;45825;45.434;9.116;2023-09-19T07:41:34;13.45;;;8.10;;
59970;SDS011;45825;45.434;9.116;2023-09-19T07:43:59;13.73;;;7.78;;
59970;SDS011;45825;45.434;9.116;2023-09-19T07:46:24;11.65;;;7.43;;
59970;SDS011;45825;45.434;9.116;2023-09-19T07:48:51;14.35;;;7.72;;
59970;SDS011;45825;45.434;9.116;2023-09-19T07:51:17;12.43;;;7.22;;
59970;SDS011;45825;45.434;9.116;2023-09-19T07:53:42;13.73;;;7.10;;
59970;SDS011;45825;45.434;9.116;2023-09-19T07:56:08;14.60;;;7.13;;
59970;SDS011;45825;45.434;9.116;2023-09-19T07:58:35;17.30;;;7.68;;
59970;SDS011;45825;45.434;9.116;2023-09-19T08:01:05;13.30;;;7.75;;
59970;SDS011;45825;45.434;9.116;2023-09-19T08:03:32;16.00;;;7.15;;
59970;SDS011;45825;45.434;9.116;2023-09-19T08:05:59;16.45;;;7.57;;
59970;SDS011;45825;45.434;9.116;2023-09-19T08:08:25;11.88;;;7.47;;
59970;SDS011;45825;45.434;9.116;2023-09-19T08:10:55;13.40;;;6.65;;
59970;SDS011;45825;45.434;9.116;2023-09-19T08:13:22;12.80;;;7.38;;
59970;SDS011;45825;45.434;9.116;2023-09-19T08:15:48;10.35;;;5.60;;
59970;SDS011;45825;45.434;9.116;2023-09-19T08:18:16;10.32;;;5.63;;
59970;SDS011;45825;45.434;9.116;2023-09-19T08:20:42;13.98;;;6.63;;
59970;SDS011;45825;45.434;9.116;2023-09-19T08:23:08;10.80;;;5.80;;
59970;SDS011;45825;45.434;9.116;2023-09-19T08:25:33;10.60;;;6.13;;
59970;SDS011;45825;45.434;9.116;2023-09-19T08:28:03;11.47;;;6.60;;
59970;SDS011;45825;45.434;9.116;2023-09-19T08:30:30;9.88;;;6.00;;
59970;SDS011;45825;45.434;9.116;2023-09-19T08:32:57;13.32;;;6.47;;
59970;SDS011;45825;45.434;9.116;2023-09-19T08:35:26;9.23;;;5.50;;
59970;SDS011;45825;45.434;9.116;2023-09-19T08:37:54;8.88;;;4.90;;
59970;SDS011;45825;45.434;9.116;2023-09-19T08:40:20;10.23;;;4.95;;
59970;SDS011;45825;45.434;9.116;2023-09-19T08:42:52;9.82;;;5.95;;
59970;SDS011;45825;45.434;9.116;2023-09-19T08:45:20;12.60;;;5.68;;
59970;SDS011;45825;45.434;9.116;2023-09-19T08:48:06;10.65;;;6.60;;
59970;SDS011;45825;45.434;9.116;2023-09-19T08:50:35;12.02;;;5.90;;
59970;SDS011;45825;45.434;9.116;2023-09-19T08:53:10;11.32;;;5.72;;
59970;SDS011;45825;45.434;9.116;2023-09-19T08:55:40;15.90;;;5.70;;
59970;SDS011;45825;45.434;9.116;2023-09-19T08:58:08;12.30;;;6.10;;
59970;SDS011;45825;45.434;9.116;2023-09-19T09:00:35;9.90;;;5.43;;
59970;SDS011;45825;45.434;9.116;2023-09-19T09:03:01;13.40;;;6.53;;
59970;SDS011;45825;45.434;9.116;2023-09-19T09:05:29;12.10;;;6.07;;
59970;SDS011;45825;45.434;9.116;2023-09-19T09:07:55;11.93;;;6.43;;
59970;SDS011;45825;45.434;9.116;2023-09-19T09:10:22;10.75;;;6.30;;
59970;SDS011;45825;45.434;9.116;2023-09-19T09:12:48;11.07;;;6.30;;
59970;SDS011;45825;45.434;9.116;2023-09-19T09:15:17;11.68;;;6.80;;
59970;SDS011;45825;45.434;9.116;2023-09-19T09:17:49;13.10;;;5.95;;
59970;SDS011;45825;45.434;9.116;2023-09-19T09:20:19;12.02;;;5.40;;
59970;SDS011;45825;45.434;9.116;2023-09-19T09:22:55;10.52;;;4.30;;
59970;SDS011;45825;45.434;9.116;2023-09-19T09:25:46;8.70;;;5.00;;
59970;SDS011;45825;45.434;9.116;2023-09-19T09:28:20;8.40;;;4.32;;
59970;SDS011;45825;45.434;9.116;2023-09-19T09:30:47;10.43;;;4.88;;
59970;SDS011;45825;45.434;9.116;2023-09-19T09:33:12;11.23;;;4.90;;
59970;SDS011;45825;45.434;9.116;2023-09-19T09:38:24;7.28;;;3.88;;
59970;SDS011;45825;45.434;9.116;2023-09-19T09:40:57;9.68;;;4.15;;
59970;SDS011;45825;45.434;9.116;2023-09-19T09:43:30;11.60;;;4.20;;
59970;SDS011;45825;45.434;9.116;2023-09-19T09:46:19;9.52;;;5.10;;
59970;SDS011;45825;45.434;9.116;2023-09-19T09:48:48;9.98;;;4.38;;
59970;SDS011;45825;45.434;9.116;2023-09-19T09:51:40;8.95;;;4.65;;
59970;SDS011;45825;45.434;9.116;2023-09-19T09:54:22;8.00;;;4.20;;
59970;SDS011;45825;45.434;9.116;2023-09-19T09:56:52;8.90;;;3.97;;
59970;SDS011;45825;45.434;9.116;2023-09-19T10:02:19;9.02;;;4.05;;
59970;SDS011;45825;45.434;9.116;2023-09-19T10:04:52;11.02;;;5.50;;
59970;SDS011;45825;45.434;9.116;2023-09-19T10:07:45;9.15;;;4.55;;
59970;SDS011;45825;45.434;9.116;2023-09-19T10:10:36;10.90;;;4.47;;
59970;SDS011;45825;45.434;9.116;2023-09-19T10:13:11;8.98;;;3.92;;
59970;SDS011;45825;45.434;9.116;2023-09-19T10:15:38;9.77;;;4.53;;
59970;SDS011;45825;45.434;9.116;2023-09-19T10:18:13;9.05;;;3.85;;
59970;SDS011;45825;45.434;9.116;2023-09-19T10:20:43;10.73;;;3.85;;
59970;SDS011;45825;45.434;9.116;2023-09-19T10:23:11;9.38;;;3.95;;
59970;SDS011;45825;45.434;9.116;2023-09-19T10:25:38;8.90;;;3.50;;
59970;SDS011;45825;45.434;9.116;2023-09-19T10:28:05;11.20;;;4.20;;
59970;SDS011;45825;45.434;9.116;2023-09-19T10:30:40;12.98;;;4.72;;
59970;SDS011;45825;45.434;9.116;2023-09-19T10:33:10;8.77;;;4.05;;
59970;SDS011;45825;45.434;9.116;2023-09-19T10:35:40;10.48;;;4.10;;
59970;SDS011;45825;45.434;9.116;2023-09-19T10:38:09;7.68;;;3.60;;
59970;SDS011;45825;45.434;9.116;2023-09-19T10:40:36;11.68;;;4.20;;
59970;SDS011;45825;45.434;9.116;2023-09-19T10:43:05;8.68;;;3.72;;
59970;SDS011;45825;45.434;9.116;2023-09-19T10:45:32;10.25;;;3.58;;
59970;SDS011;45825;45.434;9.116;2023-09-19T10:47:59;7.40;;;3.20;;
59970;SDS011;45825;45.434;9.116;2023-09-19T10:50:30;9.48;;;3.67;;
59970;SDS011;45825;45.434;9.116;2023-09-19T10:53:00;9.15;;;3.20;;
59970;SDS011;45825;45.434;9.116;2023-09-19T10:55:29;10.00;;;3.38;;
59970;SDS011;45825;45.434;9.116;2023-09-19T10:57:57;6.80;;;3.45;;
59970;SDS011;45825;45.434;9.116;2023-09-19T11:00:52;8.73;;;3.45;;
59970;SDS011;45825;45.434;9.116;2023-09-19T11:03:19;8.60;;;3.22;;
59970;SDS011;45825;45.434;9.116;2023-09-19T11:25:53;10.20;;;3.70;;
59970;SDS011;45825;45.434;9.116;2023-09-19T11:30:49;7.55;;;3.17;;
59970;SDS011;45825;45.434;9.116;2023-09-19T11:36:05;7.88;;;2.75;;
59970;SDS011;45825;45.434;9.116;2023-09-19T11:41:57;7.57;;;2.60;;
59970;SDS011;45825;45.434;9.116;2023-09-19T11:46:34;8.23;;;2.67;;
59970;SDS011;45825;45.434;9.116;2023-09-19T11:49:16;8.45;;;3.03;;
59970;SDS011;45825;45.434;9.116;2023-09-19T11:51:45;9.02;;;3.05;;
59970;SDS011;45825;45.434;9.116;2023-09-19T11:54:12;7.95;;;3.33;;
59970;SDS011;45825;45.434;9.116;2023-09-19T11:56:48;7.32;;;3.13;;
59970;SDS011;45825;45.434;9.116;2023-09-19T11:59:22;10.52;;;3.28;;
59970;SDS011;45825;45.434;9.116;2023-09-19T12:01:55;5.13;;;2.55;;
59970;SDS011;45825;45.434;9.116;2023-09-19T12:04:36;6.85;;;2.63;;
59970;SDS011;45825;45.434;9.116;2023-09-19T12:07:07;5.88;;;2.60;;
59970;SDS011;45825;45.434;9.116;2023-09-19T12:09:40;8.65;;;3.30;;
59970;SDS011;45825;45.434;9.116;2023-09-19T12:12:09;8.95;;;2.75;;
59970;SDS011;45825;45.434;9.116;2023-09-19T12:14:36;5.88;;;2.40;;
59970;SDS011;45825;45.434;9.116;2023-09-19T12:17:04;6.78;;;2.25;;
59970;SDS011;45825;45.434;9.116;2023-09-19T12:19:32;10.60;;;3.25;;
59970;SDS011;45825;45.434;9.116;2023-09-19T12:21:59;7.28;;;2.45;;
59970;SDS011;45825;45.434;9.116;2023-09-19T12:24:32;6.68;;;2.20;;
59970;SDS011;45825;45.434;9.116;2023-09-19T12:27:00;8.18;;;2.30;;
59970;SDS011;45825;45.434;9.116;2023-09-19T12:29:26;6.30;;;2.30;;
59970;SDS011;45825;45.434;9.116;2023-09-19T12:31:56;8.45;;;2.60;;
59970;SDS011;45825;45.434;9.116;2023-09-19T12:34:29;6.75;;;2.60;;
59970;SDS011;45825;45.434;9.116;2023-09-19T12:37:06;7.00;;;2.45;;
59970;SDS011;45825;45.434;9.116;2023-09-19T12:39:47;5.50;;;2.38;;
59970;SDS011;45825;45.434;9.116;2023-09-19T12:42:17;5.88;;;2.35;;
59970;SDS011;45825;45.434;9.116;2023-09-19T12:44:50;7.85;;;2.50;;
59970;SDS011;45825;45.434;9.116;2023-09-19T12:47:26;7.13;;;2.00;;
59970;SDS011;45825;45.434;9.116;2023-09-19T12:50:06;5.70;;;1.90;;
59970;SDS011;45825;45.434;9.116;2023-09-19T12:52:48;4.88;;;2.20;;
59970;SDS011;45825;45.434;9.116;2023-09-19T12:57:58;4.50;;;2.22;;
59970;SDS011;45825;45.434;9.116;2023-09-19T13:00:43;8.23;;;2.35;;
59970;SDS011;45825;45.434;9.116;2023-09-19T13:11:03;8.07;;;2.35;;
59970;SDS011;45825;45.434;9.116;2023-09-19T13:13:42;6.18;;;2.05;;
59970;SDS011;45825;45.434;9.116;2023-09-19T13:16:14;7.03;;;2.17;;
59970;SDS011;45825;45.434;9.116;2023-09-19T13:18:45;5.07;;;1.90;;
59970;SDS011;45825;45.434;9.116;2023-09-19T13:21:26;8.00;;;2.28;;
59970;SDS011;45825;45.434;9.116;2023-09-19T13:26:50;7.75;;;1.90;;
59970;SDS011;45825;45.434;9.116;2023-09-19T13:29:16;7.45;;;2.10;;
59970;SDS011;45825;45.434;9.116;2023-09-19T13:31:52;7.20;;;2.08;;
59970;SDS011;45825;45.434;9.116;2023-09-19T13:34:18;4.85;;;1.92;;
59970;SDS011;45825;45.434;9.116;2023-09-19T13:36:45;6.80;;;2.10;;
59970;SDS011;45825;45.434;9.116;2023-09-19T13:39:13;5.20;;;1.98;;
59970;SDS011;45825;45.434;9.116;2023-09-19T13:41:40;5.78;;;1.75;;
59970;SDS011;45825;45.434;9.116;2023-09-19T13:44:06;5.72;;;1.92;;
59970;SDS011;45825;45.434;9.116;2023-09-19T13:46:31;6.15;;;2.03;;
59970;SDS011;45825;45.434;9.116;2023-09-19T13:48:58;7.63;;;2.05;;
59970;SDS011;45825;45.434;9.116;2023-09-19T13:51:24;9.38;;;3.03;;
59970;SDS011;45825;45.434;9.116;2023-09-19T13:53:51;6.85;;;1.90;;
59970;SDS011;45825;45.434;9.116;2023-09-19T13:56:16;6.32;;;2.28;;
59970;SDS011;45825;45.434;9.116;2023-09-19T13:58:41;5.43;;;2.40;;
59970;SDS011;45825;45.434;9.116;2023-09-19T14:01:07;8.23;;;2.10;;
59970;SDS011;45825;45.434;9.116;2023-09-19T14:03:37;6.43;;;2.17;;
59970;SDS011;45825;45.434;9.116;2023-09-19T14:06:03;5.82;;;2.08;;
59970;SDS011;45825;45.434;9.116;2023-09-19T14:08:29;7.18;;;2.20;;
59970;SDS011;45825;45.434;9.116;2023-09-19T14:10:54;7.40;;;2.22;;
59970;SDS011;45825;45.434;9.116;2023-09-19T14:13:19;6.95;;;2.47;;
59970;SDS011;45825;45.434;9.116;2023-09-19T14:15:45;4.93;;;2.00;;
59970;SDS011;45825;45.434;9.116;2023-09-19T14:18:11;6.75;;;2.28;;
59970;SDS011;45825;45.434;9.116;2023-09-19T14:20:37;7.30;;;2.58;;
59970;SDS011;45825;45.434;9.116;2023-09-19T14:23:05;6.18;;;2.50;;
59970;SDS011;45825;45.434;9.116;2023-09-19T14:25:31;7.60;;;2.50;;
59970;SDS011;45825;45.434;9.116;2023-09-19T14:27:59;5.38;;;2.35;;
59970;SDS011;45825;45.434;9.116;2023-09-19T14:30:24;5.33;;;2.57;;
59970;SDS011;45825;45.434;9.116;2023-09-19T14:32:49;6.13;;;2.47;;
59970;SDS011;45825;45.434;9.116;2023-09-19T14:35:15;6.13;;;2.60;;
59970;SDS011;45825;45.434;9.116;2023-09-19T14:37:41;6.97;;;2.50;;
59970;SDS011;45825;45.434;9.116;2023-09-19T14:40:06;7.15;;;2.50;;
59970;SDS011;45825;45.434;9.116;2023-09-19T14:42:34;7.80;;;2.97;;
59970;SDS011;45825;45.434;9.116;2023-09-19T14:45:04;9.50;;;3.50;;
59970;SDS011;45825;45.434;9.116;2023-09-19T14:47:30;7.93;;;3.33;;
59970;SDS011;45825;45.434;9.116;2023-09-19T14:49:58;9.45;;;3.38;;
59970;SDS011;45825;45.434;9.116;2023-09-19T14:52:24;6.28;;;3.25;;
59970;SDS011;45825;45.434;9.116;2023-09-19T14:54:53;9.10;;;3.85;;
59970;SDS011;45825;45.434;9.116;2023-09-19T14:57:18;7.93;;;3.50;;
59970;SDS011;45825;45.434;9.116;2023-09-19T14:59:44;7.63;;;3.28;;
59970;SDS011;45825;45.434;9.116;2023-09-19T15:02:09;9.63;;;3.20;;
59970;SDS011;45825;45.434;9.116;2023-09-19T15:04:34;6.45;;;3.33;;
59970;SDS011;45825;45.434;9.116;2023-09-19T15:07:00;7.55;;;3.65;;
59970;SDS011;45825;45.434;9.116;2023-09-19T15:09:25;6.50;;;2.78;;
59970;SDS011;45825;45.434;9.116;2023-09-19T15:11:51;6.90;;;3.25;;
59970;SDS011;45825;45.434;9.116;2023-09-19T15:14:17;7.80;;;3.10;;
59970;SDS011;45825;45.434;9.116;2023-09-19T15:16:43;9.57;;;3.53;;
59970;SDS011;45825;45.434;9.116;2023-09-19T15:24:16;9.10;;;3.10;;
59970;SDS011;45825;45.434;9.116;2023-09-19T15:26:42;8.73;;;3.40;;
59970;SDS011;45825;45.434;9.116;2023-09-19T15:29:08;7.75;;;3.35;;
59970;SDS011;45825;45.434;9.116;2023-09-19T15:31:34;9.15;;;3.30;;
59970;SDS011;45825;45.434;9.116;2023-09-19T15:34:01;7.65;;;3.38;;
59970;SDS011;45825;45.434;9.116;2023-09-19T15:36:27;8.52;;;3.42;;
59970;SDS011;45825;45.434;9.116;2023-09-19T15:41:31;8.70;;;2.97;;
59970;SDS011;45825;45.434;9.116;2023-09-19T15:43:58;8.38;;;3.30;;
59970;SDS011;45825;45.434;9.116;2023-09-19T15:46:26;9.60;;;3.38;;
59970;SDS011;45825;45.434;9.116;2023-09-19T15:48:52;15.48;;;3.08;;
59970;SDS011;45825;45.434;9.116;2023-09-19T15:51:18;6.75;;;2.75;;
59970;SDS011;45825;45.434;9.116;2023-09-19T15:53:45;8.48;;;3.05;;
59970;SDS011;45825;45.434;9.116;2023-09-19T15:56:14;6.45;;;2.83;;
59970;SDS011;45825;45.434;9.116;2023-09-19T15:58:43;8.07;;;3.22;;
59970;SDS011;45825;45.434;9.116;2023-09-19T16:01:09;8.63;;;2.85;;
59970;SDS011;45825;45.434;9.116;2023-09-19T16:03:35;5.72;;;3.00;;
59970;SDS011;45825;45.434;9.116;2023-09-19T16:06:15;9.13;;;2.90;;
59970;SDS011;45825;45.434;9.116;2023-09-19T16:08:49;6.18;;;2.47;;
59970;SDS011;45825;45.434;9.116;2023-09-19T16:11:16;5.60;;;2.30;;